Menston, United Kingdom
Current Conditions -  °F | °C
As of 7:20 AM on Saturday 25 Oct 2014 (Local Time) from EGNM Reporting Station
Few Clouds Few Clouds  
Wind Chill: 41°   Ceiling: Unl
Heat Index: 45°   Visibility: 6mi
Dew Point: 43°   Wind: 7mph
Humidity: 93%   Direction: 220°SW
Pressure: 29.88"   Gusts: NA
Location:  53.89°N, 1.74°W
Report Text: EGNM 250620Z 22006KT 190V270 9999 FEW012 07/06 Q1012
Loading
Personal Weather Stations






























Interactive Weather Map
Tropical Storm Tracking
New forecast layout! Learn more

10-Day Weather Forecast

Advertisements
Track Severe Weather on mobile